Time;durP1;ratioP1;P1;durP2;ratioP2;P2;SDS_P1;SDS_P2;PMS_P1;PMS_P2;Temp;Humidity;BMP_temperature;BMP_pressure;BME280_temperature;BME280_humidity;BME280_pressure;Samples;Min_cycle;Max_cycle;Signal;HPM_P1;HPM_P2
2022/07/10 00:00:38;;;;;;;4.30;1.30;;;15.30;99.90;;;;;;5057696;28;20436;-49
2022/07/10 00:03:06;;;;;;;2.23;1.20;;;15.20;99.90;;;;;;5057441;28;20471;-51
2022/07/10 00:05:35;;;;;;;1.77;1.00;;;15.20;99.90;;;;;;5056714;28;20459;-48
2022/07/10 00:08:03;;;;;;;3.77;1.20;;;15.20;99.90;;;;;;5056944;28;20435;-44
2022/07/10 00:10:30;;;;;;;5.30;1.13;;;15.20;99.90;;;;;;5057825;28;20508;-41
2022/07/10 00:12:57;;;;;;;6.67;2.00;;;15.20;99.90;;;;;;5056664;28;20479;-45
2022/07/10 00:15:25;;;;;;;2.23;1.10;;;15.30;99.90;;;;;;5057500;28;20452;-48
2022/07/10 00:17:53;;;;;;;1.70;0.90;;;15.30;99.90;;;;;;5057382;28;20440;-44
2022/07/10 00:20:21;;;;;;;3.10;1.27;;;15.40;99.90;;;;;;5057084;28;20508;-47
2022/07/10 00:22:48;;;;;;;5.80;1.20;;;15.40;99.90;;;;;;5055978;28;20524;-51
2022/07/10 00:25:17;;;;;;;2.70;1.20;;;15.30;99.90;;;;;;5056353;28;20499;-48
2022/07/10 00:27:46;;;;;;;3.90;1.43;;;15.40;99.90;;;;;;5055801;28;20464;-48
2022/07/10 00:30:13;;;;;;;7.70;1.83;;;15.40;99.90;;;;;;5056952;28;20475;-40
2022/07/10 00:32:40;;;;;;;7.03;1.57;;;15.40;99.90;;;;;;5056014;28;20530;-42
2022/07/10 00:35:08;;;;;;;2.40;1.10;;;15.40;99.90;;;;;;5055791;28;20487;-51
2022/07/10 00:37:37;;;;;;;9.20;1.60;;;15.40;99.90;;;;;;5056284;28;20531;-47
2022/07/10 00:40:05;;;;;;;5.83;1.47;;;15.40;99.90;;;;;;5052063;28;20470;-42
2022/07/10 00:42:32;;;;;;;6.43;1.50;;;15.40;99.90;;;;;;5055653;28;20463;-53
2022/07/10 00:44:59;;;;;;;3.70;1.13;;;15.40;99.90;;;;;;5055953;28;20454;-52
2022/07/10 00:47:26;;;;;;;2.30;1.50;;;15.30;99.90;;;;;;5055983;28;20475;-48
2022/07/10 00:49:55;;;;;;;7.50;1.60;;;15.30;99.90;;;;;;5056477;28;20479;-52
2022/07/10 00:52:22;;;;;;;5.30;1.30;;;15.40;99.90;;;;;;5056362;28;20503;-51
2022/07/10 00:54:51;;;;;;;2.30;1.27;;;15.30;99.90;;;;;;5056424;28;20516;-49
2022/07/10 00:57:19;;;;;;;5.63;1.53;;;15.30;99.90;;;;;;5056146;28;20452;-47
2022/07/10 00:59:47;;;;;;;2.70;1.50;;;15.30;99.90;;;;;;5056171;28;20464;-42
2022/07/10 01:02:14;;;;;;;3.30;1.43;;;15.20;99.90;;;;;;5055967;28;20424;-48
2022/07/10 01:04:41;;;;;;;2.97;1.17;;;15.20;99.90;;;;;;5057172;28;20456;-49
2022/07/10 01:07:08;;;;;;;8.93;1.30;;;15.20;99.90;;;;;;5056818;28;20543;-53
2022/07/10 01:09:35;;;;;;;5.10;1.43;;;15.20;99.90;;;;;;5056154;28;20488;-50
2022/07/10 01:12:04;;;;;;;2.90;1.80;;;15.20;99.90;;;;;;5056423;28;20503;-49
2022/07/10 01:14:35;;;;;;;4.43;1.40;;;15.30;99.90;;;;;;5054900;28;20548;-48
2022/07/10 01:17:02;;;;;;;7.07;1.23;;;15.30;99.90;;;;;;5055719;28;20459;-56
2022/07/10 01:19:29;;;;;;;1.63;1.03;;;15.30;99.90;;;;;;5055501;28;20464;-53
2022/07/10 01:21:57;;;;;;;1.80;1.23;;;15.30;99.90;;;;;;5055109;28;20475;-52
2022/07/10 01:24:24;;;;;;;7.77;1.33;;;15.30;99.90;;;;;;5054772;28;20536;-54
2022/07/10 01:26:51;;;;;;;1.20;1.00;;;15.30;99.90;;;;;;5055360;28;20471;-51
2022/07/10 01:29:20;;;;;;;3.37;2.23;;;15.20;99.90;;;;;;5055081;28;20496;-52
2022/07/10 01:31:47;;;;;;;8.17;1.60;;;15.20;99.90;;;;;;5055142;28;20507;-47
2022/07/10 01:34:14;;;;;;;2.57;1.17;;;15.10;99.90;;;;;;5055372;28;20543;-52
2022/07/10 01:36:42;;;;;;;3.50;1.10;;;15.10;99.90;;;;;;5054769;28;20490;-41
2022/07/10 01:39:10;;;;;;;2.10;1.10;;;15.10;99.90;;;;;;5055776;28;20491;-56
2022/07/10 01:41:37;;;;;;;5.90;1.10;;;15.10;99.90;;;;;;5056170;28;20442;-42
2022/07/10 01:44:03;;;;;;;3.03;1.10;;;15.10;99.90;;;;;;5056033;28;20464;-50
2022/07/10 01:46:31;;;;;;;2.03;1.30;;;15.10;99.90;;;;;;5056393;28;20699;-55
2022/07/10 01:48:57;;;;;;;3.50;1.27;;;15.10;99.90;;;;;;5054583;28;20464;-49
2022/07/10 01:51:27;;;;;;;2.93;1.00;;;15.10;99.90;;;;;;5053846;28;20496;-52
2022/07/10 01:53:56;;;;;;;2.83;1.00;;;15.00;99.90;;;;;;5054985;28;20548;-48
2022/07/10 01:56:24;;;;;;;1.83;1.10;;;15.00;99.90;;;;;;5054684;28;20495;-49
2022/07/10 01:58:51;;;;;;;2.57;1.23;;;14.90;99.90;;;;;;5054704;28;20508;-49
2022/07/10 02:01:18;;;;;;;3.97;1.20;;;14.90;99.90;;;;;;5051705;28;20559;-57
2022/07/10 02:06:30;;;;;;;4.70;1.77;;;14.90;99.90;;;;;;5054755;28;20436;-47
2022/07/10 02:08:57;;;;;;;3.00;1.20;;;15.00;99.90;;;;;;5054305;28;20462;-48
2022/07/10 02:11:25;;;;;;;1.10;0.80;;;15.00;99.90;;;;;;5054691;28;20460;-48
2022/07/10 02:13:52;;;;;;;8.40;1.30;;;15.10;99.90;;;;;;5055170;28;20804;-45
2022/07/10 02:16:18;;;;;;;3.27;1.10;;;15.10;99.90;;;;;;5054902;28;20450;-46
2022/07/10 02:18:45;;;;;;;2.10;1.40;;;15.10;99.90;;;;;;5053972;28;20446;-44
2022/07/10 02:21:12;;;;;;;1.93;1.40;;;15.10;99.90;;;;;;5048857;28;20780;-58
2022/07/10 02:23:42;;;;;;;1.17;0.90;;;15.10;99.90;;;;;;5052609;28;20444;-48
2022/07/10 02:26:09;;;;;;;3.97;1.37;;;15.00;99.90;;;;;;5054532;28;20478;-54
2022/07/10 02:28:37;;;;;;;6.60;1.23;;;15.00;99.90;;;;;;5047673;28;20446;-57
2022/07/10 02:31:03;;;;;;;3.20;1.60;;;14.90;99.90;;;;;;5052204;28;20508;-49
2022/07/10 02:33:32;;;;;;;1.50;0.90;;;14.90;99.90;;;;;;5054780;28;20481;-54
2022/07/10 02:35:59;;;;;;;3.53;1.10;;;14.90;99.90;;;;;;5054311;28;20436;-53
2022/07/10 02:38:26;;;;;;;2.67;1.23;;;14.90;99.90;;;;;;5055106;28;20539;-53
2022/07/10 02:40:53;;;;;;;3.37;1.10;;;14.90;99.90;;;;;;5053626;28;20486;-47
2022/07/10 02:43:20;;;;;;;2.20;1.30;;;15.00;99.90;;;;;;5054346;28;20519;-48
2022/07/10 02:45:48;;;;;;;2.73;1.13;;;15.00;99.90;;;;;;5053655;28;20452;-50
2022/07/10 02:48:15;;;;;;;3.73;1.03;;;14.90;99.90;;;;;;5055592;28;20444;-57
2022/07/10 02:50:42;;;;;;;2.47;0.97;;;14.90;99.90;;;;;;5054766;28;20468;-49
2022/07/10 02:53:09;;;;;;;1.40;0.80;;;14.80;99.90;;;;;;5055737;28;20448;-50
2022/07/10 02:55:36;;;;;;;4.97;1.43;;;14.70;99.90;;;;;;5054935;28;20515;-49
2022/07/10 02:58:03;;;;;;;2.83;1.07;;;14.70;99.90;;;;;;5053447;28;20472;-49
2022/07/10 03:00:30;;;;;;;3.30;1.50;;;14.70;99.90;;;;;;5045558;28;20451;-49
2022/07/10 03:02:58;;;;;;;2.80;1.00;;;14.70;99.90;;;;;;5054513;28;20472;-45
2022/07/10 03:05:28;;;;;;;5.60;1.40;;;14.70;99.90;;;;;;5053949;28;20525;-50
2022/07/10 03:07:56;;;;;;;4.43;1.20;;;14.70;99.90;;;;;;5053401;28;20444;-49
2022/07/10 03:10:23;;;;;;;3.50;1.70;;;14.60;99.90;;;;;;5054719;28;20444;-45
2022/07/10 03:12:50;;;;;;;2.73;0.93;;;14.60;99.90;;;;;;5054318;28;20524;-49
2022/07/10 03:15:19;;;;;;;6.10;2.00;;;14.60;99.90;;;;;;5055439;28;20884;-56
2022/07/10 03:17:45;;;;;;;1.67;0.80;;;14.60;99.90;;;;;;5052185;28;20440;-43
2022/07/10 03:20:14;;;;;;;4.30;1.60;;;14.70;99.90;;;;;;5058579;28;20472;-43
2022/07/10 03:22:40;;;;;;;2.93;1.30;;;14.70;99.90;;;;;;5058047;28;20435;-43
2022/07/10 03:25:08;;;;;;;2.90;1.03;;;14.60;99.90;;;;;;5057760;28;20500;-41
2022/07/10 03:27:35;;;;;;;2.70;1.60;;;14.60;99.90;;;;;;5057342;28;20451;-49
2022/07/10 03:30:01;;;;;;;6.47;1.00;;;14.60;99.90;;;;;;5057326;28;20523;-48
2022/07/10 03:32:28;;;;;;;2.20;1.37;;;14.60;99.90;;;;;;5057160;28;20504;-42
2022/07/10 03:34:55;;;;;;;3.37;1.20;;;14.50;99.90;;;;;;5056734;28;20545;-46
2022/07/10 03:37:24;;;;;;;5.43;2.03;;;14.60;99.90;;;;;;5057086;28;20463;-42
2022/07/10 03:39:54;;;;;;;4.73;0.90;;;14.60;99.90;;;;;;5057810;28;20470;-46
2022/07/10 03:42:21;;;;;;;2.20;1.17;;;14.60;99.90;;;;;;5058207;28;20488;-49
2022/07/10 03:44:47;;;;;;;5.83;2.00;;;14.60;99.90;;;;;;5057476;28;20459;-42
2022/07/10 03:47:14;;;;;;;5.23;0.90;;;14.50;99.90;;;;;;5057552;28;20471;-47
2022/07/10 03:49:41;;;;;;;2.60;0.97;;;14.50;99.90;;;;;;5058530;28;20467;-49
2022/07/10 03:52:09;;;;;;;4.27;1.67;;;14.50;99.90;;;;;;5058691;28;20494;-58
2022/07/10 03:54:38;;;;;;;3.33;1.33;;;14.40;99.90;;;;;;5058433;28;20543;-51
2022/07/10 03:59:49;;;;;;;1.67;1.07;;;14.40;99.90;;;;;;5057226;28;20407;-54
2022/07/10 04:02:16;;;;;;;6.83;2.70;;;14.30;99.90;;;;;;5057041;28;20478;-46
2022/07/10 04:04:43;;;;;;;6.13;1.40;;;14.40;99.90;;;;;;5057144;28;20444;-49
2022/07/10 04:07:12;;;;;;;4.83;1.10;;;14.50;99.90;;;;;;5057209;28;20477;-51
2022/07/10 04:09:40;;;;;;;7.97;1.10;;;14.50;99.90;;;;;;5058321;28;20438;-49
2022/07/10 04:12:07;;;;;;;2.70;1.20;;;14.50;99.90;;;;;;5052846;28;20519;-51
2022/07/10 04:14:34;;;;;;;3.70;1.27;;;14.60;99.90;;;;;;5055135;28;20535;-43
2022/07/10 04:17:11;;;;;;;3.63;1.13;;;14.60;99.90;;;;;;5051610;28;20448;-56
2022/07/10 04:19:38;;;;;;;1.33;1.00;;;14.50;99.90;;;;;;5053346;28;20488;-45
2022/07/10 04:22:05;;;;;;;5.93;1.10;;;14.50;99.90;;;;;;5056832;28;20563;-51
2022/07/10 04:24:35;;;;;;;4.83;1.03;;;14.50;99.90;;;;;;5057809;28;20471;-47
2022/07/10 04:27:04;;;;;;;2.23;1.43;;;14.50;99.90;;;;;;5053572;28;20452;-51
2022/07/10 04:29:31;;;;;;;1.77;1.00;;;14.50;99.90;;;;;;5056766;28;20487;-54
2022/07/10 04:31:58;;;;;;;1.40;0.97;;;14.50;99.90;;;;;;5056526;28;20484;-51
2022/07/10 04:34:26;;;;;;;2.97;1.00;;;14.60;99.90;;;;;;5050336;28;20464;-45
2022/07/10 04:36:53;;;;;;;1.27;0.90;;;14.60;99.90;;;;;;5057196;28;20452;-49
2022/07/10 04:39:20;;;;;;;3.33;1.20;;;14.70;99.90;;;;;;5057502;28;20471;-54
2022/07/10 04:41:47;;;;;;;3.13;1.20;;;14.70;99.90;;;;;;5057007;28;20456;-61
2022/07/10 04:44:18;;;;;;;1.90;1.20;;;14.70;99.90;;;;;;5051132;28;20985;-52
2022/07/10 04:46:47;;;;;;;2.13;1.10;;;14.80;99.90;;;;;;5052356;28;20451;-51
2022/07/10 04:49:14;;;;;;;2.30;1.10;;;14.70;99.90;;;;;;5056186;28;20428;-53
2022/07/10 04:51:42;;;;;;;1.93;1.17;;;14.80;99.90;;;;;;5057118;28;20484;-53
2022/07/10 04:54:08;;;;;;;2.83;1.03;;;14.70;99.90;;;;;;5057251;28;20480;-53
2022/07/10 04:56:35;;;;;;;1.97;1.10;;;14.80;99.90;;;;;;5056905;28;20471;-52
2022/07/10 04:59:02;;;;;;;6.97;1.10;;;14.80;99.90;;;;;;5057313;28;20453;-50
2022/07/10 05:01:30;;;;;;;2.70;1.13;;;14.80;99.90;;;;;;5057469;28;20491;-50
2022/07/10 05:03:57;;;;;;;3.80;1.43;;;14.70;99.90;;;;;;5055652;28;20467;-54
2022/07/10 05:06:24;;;;;;;5.93;1.27;;;14.80;99.90;;;;;;5057121;28;20446;-53
2022/07/10 05:08:51;;;;;;;4.50;1.33;;;14.70;99.90;;;;;;5057097;28;20449;-53
2022/07/10 05:11:20;;;;;;;1.70;1.00;;;14.70;99.90;;;;;;5056109;28;20440;-50
2022/07/10 05:13:48;;;;;;;3.13;1.37;;;14.80;99.90;;;;;;5051025;28;20460;-51
2022/07/10 05:16:15;;;;;;;2.37;0.90;;;14.90;99.90;;;;;;5057450;28;20421;-53
2022/07/10 05:18:43;;;;;;;2.43;1.20;;;14.90;99.90;;;;;;5057271;28;20457;-56
2022/07/10 05:21:10;;;;;;;10.93;1.30;;;14.90;99.90;;;;;;5056441;28;20500;-47
2022/07/10 05:23:38;;;;;;;6.03;1.50;;;15.00;99.90;;;;;;5055846;28;20471;-52
2022/07/10 05:26:05;;;;;;;3.73;1.40;;;15.00;99.90;;;;;;5056147;28;20468;-49
2022/07/10 05:28:32;;;;;;;3.93;1.20;;;15.00;99.90;;;;;;5056414;28;20925;-49
2022/07/10 05:30:59;;;;;;;4.80;1.10;;;15.00;99.90;;;;;;5055877;28;20475;-51
2022/07/10 05:33:28;;;;;;;4.37;1.50;;;15.00;99.90;;;;;;5056484;28;20472;-51
2022/07/10 05:35:56;;;;;;;5.60;1.60;;;15.00;99.90;;;;;;5056690;28;20483;-51
2022/07/10 05:38:23;;;;;;;5.17;1.40;;;15.00;99.90;;;;;;5056273;28;20494;-55
2022/07/10 05:40:50;;;;;;;4.87;1.70;;;15.00;99.90;;;;;;5055944;28;21007;-44
2022/07/10 05:43:17;;;;;;;1.60;1.23;;;15.10;99.90;;;;;;5056531;28;20543;-45
2022/07/10 05:45:44;;;;;;;2.27;1.20;;;15.20;99.90;;;;;;5056360;28;20440;-48
2022/07/10 05:48:12;;;;;;;4.23;1.37;;;15.30;99.90;;;;;;5056089;28;20428;-45
2022/07/10 05:50:39;;;;;;;7.33;1.67;;;15.30;99.90;;;;;;5055728;28;20500;-49
2022/07/10 05:53:10;;;;;;;2.37;1.10;;;15.30;99.90;;;;;;5055572;28;20451;-52
2022/07/10 05:55:39;;;;;;;3.07;1.47;;;15.40;99.90;;;;;;5055765;28;20478;-51
2022/07/10 05:58:06;;;;;;;3.97;1.20;;;15.40;99.90;;;;;;5053253;28;20451;-54
2022/07/10 06:00:33;;;;;;;2.40;1.20;;;15.50;99.90;;;;;;5053059;28;20885;-54
2022/07/10 06:03:00;;;;;;;3.73;1.60;;;15.60;99.90;;;;;;5054664;28;20445;-49
2022/07/10 06:05:27;;;;;;;1.30;1.03;;;15.60;99.90;;;;;;5055417;28;20435;-48
2022/07/10 06:07:54;;;;;;;6.73;1.40;;;15.60;99.90;;;;;;5056193;28;20491;-47
2022/07/10 06:10:22;;;;;;;9.97;1.57;;;15.60;99.90;;;;;;5054766;28;20440;-51
2022/07/10 06:12:49;;;;;;;3.10;1.37;;;15.60;99.90;;;;;;5047292;28;20611;-56
2022/07/10 06:15:15;;;;;;;3.80;1.00;;;15.60;99.90;;;;;;5051795;28;20991;-57
2022/07/10 06:17:42;;;;;;;1.40;1.00;;;15.50;99.90;;;;;;5050051;28;20464;-52
2022/07/10 06:20:10;;;;;;;5.60;1.27;;;15.50;99.90;;;;;;5054352;28;20528;-50
2022/07/10 06:22:37;;;;;;;9.13;2.03;;;15.50;99.90;;;;;;5055568;28;20436;-49
2022/07/10 06:25:06;;;;;;;2.97;1.60;;;15.50;99.90;;;;;;5055700;28;20448;-51
2022/07/10 06:27:35;;;;;;;2.03;1.17;;;15.60;99.90;;;;;;5055995;28;20442;-49
2022/07/10 06:30:02;;;;;;;1.73;1.30;;;15.60;99.90;;;;;;5055640;28;20500;-51
2022/07/10 06:32:29;;;;;;;3.73;1.63;;;15.60;99.90;;;;;;5056197;28;20516;-52
2022/07/10 06:34:56;;;;;;;2.30;1.13;;;15.60;99.90;;;;;;5056780;28;20484;-51
2022/07/10 06:37:23;;;;;;;5.43;1.60;;;15.60;99.90;;;;;;5056418;28;20511;-53
2022/07/10 06:39:50;;;;;;;3.67;1.60;;;15.70;99.90;;;;;;5056214;28;20971;-50
2022/07/10 06:42:18;;;;;;;7.83;1.57;;;15.60;99.90;;;;;;5056767;28;20475;-49
2022/07/10 06:44:46;;;;;;;7.30;1.40;;;15.70;99.90;;;;;;5056403;28;20460;-50
2022/07/10 06:50:01;;;;;;;4.83;1.57;;;15.90;99.90;;;;;;5054770;28;20472;-48
2022/07/10 06:52:27;;;;;;;4.60;1.77;;;16.00;99.90;;;;;;5054854;28;20481;-55
2022/07/10 06:54:55;;;;;;;6.00;1.63;;;16.00;99.90;;;;;;5054639;28;20798;-56
2022/07/10 06:57:22;;;;;;;2.90;1.30;;;16.10;99.90;;;;;;5055025;28;20424;-56
2022/07/10 06:59:51;;;;;;;4.93;1.90;;;16.20;99.90;;;;;;5054590;28;20444;-51
2022/07/10 07:02:17;;;;;;;4.43;1.40;;;16.30;99.90;;;;;;5054806;28;20439;-52
2022/07/10 07:04:47;;;;;;;3.70;1.70;;;16.30;99.90;;;;;;5054916;28;20464;-49
2022/07/10 07:07:14;;;;;;;5.00;1.23;;;16.30;99.90;;;;;;5047349;28;20459;-51
2022/07/10 07:09:42;;;;;;;3.67;1.23;;;16.30;99.90;;;;;;5055023;28;20451;-46
2022/07/10 07:12:09;;;;;;;7.63;2.33;;;16.30;99.90;;;;;;5054460;28;20454;-51
2022/07/10 07:14:36;;;;;;;8.10;1.60;;;16.40;99.90;;;;;;5055168;28;20460;-53
2022/07/10 07:17:08;;;;;;;4.40;1.40;;;16.40;99.90;;;;;;5055545;28;20511;-54
2022/07/10 07:25:00;;;;;;;2.67;1.27;;;16.40;99.90;;;;;;5054506;28;20438;-52
2022/07/10 07:27:30;;;;;;;3.20;1.30;;;16.50;99.90;;;;;;5054593;28;20459;-52
2022/07/10 07:29:57;;;;;;;3.83;1.40;;;16.50;99.90;;;;;;5054348;28;20459;-45
2022/07/10 07:32:25;;;;;;;2.37;1.20;;;16.40;99.90;;;;;;5054015;28;20440;-54
2022/07/10 07:34:52;;;;;;;5.57;1.67;;;16.50;99.90;;;;;;5054749;28;20524;-56
2022/07/10 07:37:21;;;;;;;5.20;1.47;;;16.60;99.90;;;;;;5054528;28;20499;-52
2022/07/10 07:39:47;;;;;;;5.03;2.00;;;16.70;99.90;;;;;;5055374;28;20428;-51
2022/07/10 07:42:14;;;;;;;3.20;1.20;;;16.80;99.90;;;;;;5053797;28;20448;-59
2022/07/10 07:44:41;;;;;;;7.97;1.40;;;16.90;99.90;;;;;;5047273;28;20983;-53
2022/07/10 07:47:08;;;;;;;2.70;1.50;;;17.10;99.90;;;;;;5054656;28;20459;-51
2022/07/10 07:49:36;;;;;;;4.60;1.17;;;17.20;99.90;;;;;;5054287;28;20484;-51
2022/07/10 07:52:03;;;;;;;5.90;1.80;;;17.40;99.90;;;;;;5054367;28;20502;-51
2022/07/10 07:54:30;;;;;;;8.10;1.60;;;17.50;99.90;;;;;;5043323;28;20535;-52
2022/07/10 07:56:57;;;;;;;2.80;1.50;;;17.70;99.90;;;;;;5054536;28;20468;-54
2022/07/10 07:59:24;;;;;;;4.60;1.90;;;18.00;99.90;;;;;;5054486;28;20459;-50
2022/07/10 08:01:51;;;;;;;3.43;1.37;;;18.20;99.90;;;;;;5054233;28;20456;-47
2022/07/10 08:04:18;;;;;;;3.20;1.30;;;19.40;99.90;;;;;;5058673;28;20503;-53
2022/07/10 08:06:46;;;;;;;4.23;1.30;;;21.10;99.90;;;;;;5058491;28;20480;-53
2022/07/10 08:09:12;;;;;;;6.63;3.43;;;22.60;99.90;;;;;;5057991;28;20492;-46
2022/07/10 08:11:39;;;;;;;3.10;1.70;;;24.00;93.70;;;;;;5057561;28;20487;-53
2022/07/10 08:14:06;;;;;;;4.47;1.70;;;25.30;85.40;;;;;;5057500;28;20430;-47
2022/07/10 08:16:33;;;;;;;7.83;1.93;;;26.50;78.20;;;;;;5057162;28;20475;-57
2022/07/10 08:19:00;;;;;;;5.07;1.77;;;27.30;69.70;;;;;;5058825;28;20463;-52
2022/07/10 08:21:27;;;;;;;5.33;2.00;;;27.60;65.40;;;;;;5059374;28;20499;-50
2022/07/10 08:23:55;;;;;;;6.07;1.57;;;26.70;63.90;;;;;;5059298;28;20449;-55
2022/07/10 08:26:22;;;;;;;3.87;1.50;;;26.10;66.60;;;;;;5058319;28;20420;-53
2022/07/10 08:28:48;;;;;;;4.13;1.80;;;25.10;66.90;;;;;;5054952;28;20468;-46
2022/07/10 08:31:15;;;;;;;1.47;1.17;;;23.90;70.40;;;;;;5047992;28;20496;-53
2022/07/10 08:33:42;;;;;;;4.27;1.50;;;22.90;73.80;;;;;;5057258;28;21015;-46
2022/07/10 08:36:09;;;;;;;3.30;1.60;;;21.70;78.90;;;;;;5057674;28;20536;-50
2022/07/10 08:38:36;;;;;;;10.80;1.50;;;20.60;85.30;;;;;;5058162;28;20476;-48
2022/07/10 08:41:07;;;;;;;5.40;1.50;;;19.90;91.70;;;;;;5057177;28;20594;-51
2022/07/10 08:43:34;;;;;;;7.77;1.60;;;19.50;94.30;;;;;;5057036;28;20456;-48
2022/07/10 08:46:01;;;;;;;4.40;1.33;;;19.10;97.20;;;;;;5057553;28;20459;-52
2022/07/10 08:48:33;;;;;;;2.63;1.50;;;18.80;99.70;;;;;;5057848;28;20460;-49
2022/07/10 08:51:07;;;;;;;16.03;9.67;;;18.50;99.90;;;;;;5057671;28;20444;-49
2022/07/10 08:53:35;;;;;;;8.77;3.20;;;18.40;99.90;;;;;;5057301;28;20460;-54
2022/07/10 08:56:02;;;;;;;2.43;1.40;;;18.30;99.90;;;;;;5057095;28;20544;-45
2022/07/10 08:58:33;;;;;;;22.93;8.10;;;18.60;99.90;;;;;;5056106;28;20456;-49
2022/07/10 09:01:00;;;;;;;9.13;2.30;;;19.00;99.90;;;;;;5056734;28;20417;-52
2022/07/10 09:03:31;;;;;;;5.73;1.57;;;19.20;99.90;;;;;;5058176;28;20452;-48
2022/07/10 09:05:58;;;;;;;6.40;1.20;;;19.50;99.90;;;;;;5058484;28;20471;-52
2022/07/10 09:08:27;;;;;;;4.40;1.60;;;19.70;99.90;;;;;;5058342;28;20442;-51
2022/07/10 09:11:13;;;;;;;3.73;1.53;;;19.60;99.90;;;;;;5057929;28;20424;-54
2022/07/10 09:13:50;;;;;;;3.83;1.80;;;19.50;99.90;;;;;;5056895;28;20458;-50
2022/07/10 09:16:22;;;;;;;2.63;1.60;;;19.20;99.90;;;;;;5057890;28;20448;-50
2022/07/10 09:18:49;;;;;;;4.00;2.27;;;19.00;99.90;;;;;;5057532;28;20432;-50
2022/07/10 09:21:16;;;;;;;5.77;2.17;;;18.80;99.90;;;;;;5056804;28;20471;-53
2022/07/10 09:23:43;;;;;;;3.90;1.40;;;18.60;99.90;;;;;;5057195;28;20468;-47
2022/07/10 09:26:10;;;;;;;6.53;1.77;;;18.60;99.90;;;;;;5056738;28;20463;-52
2022/07/10 09:28:37;;;;;;;3.60;1.23;;;18.70;99.90;;;;;;5056516;28;20446;-55
2022/07/10 09:31:05;;;;;;;4.30;1.30;;;18.80;99.90;;;;;;5056044;28;20524;-51
2022/07/10 09:33:34;;;;;;;3.33;1.23;;;19.00;99.90;;;;;;5056872;28;20439;-39
2022/07/10 09:36:06;;;;;;;8.80;2.60;;;19.60;99.90;;;;;;5053843;28;20945;-46
2022/07/10 09:38:51;;;;;;;2.20;1.60;;;20.00;99.90;;;;;;5056939;28;20483;-47
2022/07/10 09:41:20;;;;;;;3.20;1.63;;;19.90;98.90;;;;;;5056740;28;20510;-58
2022/07/10 09:43:47;;;;;;;3.77;1.93;;;19.70;99.10;;;;;;5057153;28;20447;-52
2022/07/10 09:46:16;;;;;;;5.57;1.60;;;19.80;99.90;;;;;;5056618;28;20474;-47
2022/07/10 09:48:43;;;;;;;9.90;1.80;;;20.10;99.50;;;;;;5056862;28;21150;-51
2022/07/10 09:51:11;;;;;;;2.53;1.63;;;20.10;99.00;;;;;;5056379;28;20531;-50
2022/07/10 09:53:40;;;;;;;8.03;1.60;;;20.20;99.10;;;;;;5056043;28;20428;-46
2022/07/10 09:56:09;;;;;;;4.87;1.40;;;20.10;99.30;;;;;;5056443;28;20539;-50
2022/07/10 09:58:37;;;;;;;5.10;1.60;;;19.90;99.90;;;;;;5056407;28;20523;-49
2022/07/10 10:01:05;;;;;;;4.90;1.57;;;19.60;99.40;;;;;;5055918;28;20459;-51
2022/07/10 10:03:36;;;;;;;9.40;1.93;;;19.30;99.90;;;;;;5056037;28;20540;-59
2022/07/10 10:06:10;;;;;;;3.37;1.50;;;19.00;99.90;;;;;;5055798;28;20484;-51
2022/07/10 10:08:45;;;;;;;7.50;1.63;;;18.70;99.90;;;;;;5056746;28;20455;-55
2022/07/10 10:11:16;;;;;;;1.80;1.20;;;18.50;99.90;;;;;;5056685;28;20452;-55
2022/07/10 10:13:44;;;;;;;3.80;1.40;;;18.50;99.90;;;;;;5056675;28;20485;-51
2022/07/10 10:16:12;;;;;;;5.23;2.37;;;18.40;99.90;;;;;;5055521;28;20463;-50
2022/07/10 10:21:24;;;;;;;2.57;1.50;;;18.40;99.90;;;;;;5054942;28;20490;-50
2022/07/10 10:23:53;;;;;;;5.63;1.87;;;18.40;99.90;;;;;;5055499;28;20498;-53
2022/07/10 10:26:22;;;;;;;6.37;2.90;;;18.60;99.90;;;;;;5054640;28;20419;-48
2022/07/10 10:28:50;;;;;;;3.40;1.40;;;18.70;99.90;;;;;;5055419;28;20460;-50
2022/07/10 10:31:18;;;;;;;7.10;1.50;;;18.80;99.90;;;;;;5055627;28;20464;-50
2022/07/10 10:33:48;;;;;;;6.17;1.67;;;18.80;99.90;;;;;;5055738;28;20467;-56
2022/07/10 10:36:45;;;;;;;3.10;1.37;;;18.80;99.90;;;;;;5055600;28;20491;-49
2022/07/10 10:39:13;;;;;;;5.13;1.53;;;18.90;99.90;;;;;;5056279;28;20487;-51
2022/07/10 10:41:42;;;;;;;3.83;1.20;;;18.90;99.90;;;;;;5056616;28;20459;-54
2022/07/10 10:44:35;;;;;;;9.63;3.83;;;18.90;99.90;;;;;;5055751;28;20468;-56
2022/07/10 10:47:09;;;;;;;3.00;2.03;;;18.90;99.90;;;;;;5055639;28;20412;-52
2022/07/10 10:49:59;;;;;;;2.83;1.80;;;19.10;99.90;;;;;;5056013;28;20486;-54
2022/07/10 10:52:26;;;;;;;6.50;1.50;;;19.40;98.20;;;;;;5056072;28;20495;-44
2022/07/10 10:55:08;;;;;;;7.70;1.80;;;19.50;98.20;;;;;;5056068;28;20487;-48
2022/07/10 10:57:50;;;;;;;1.73;1.10;;;19.70;97.10;;;;;;5055592;28;20801;-50
2022/07/10 11:00:40;;;;;;;3.10;1.70;;;19.80;95.70;;;;;;5055680;28;20456;-49
2022/07/10 11:03:21;;;;;;;3.30;1.17;;;19.80;95.10;;;;;;5056088;28;20427;-46
2022/07/10 11:05:51;;;;;;;3.30;1.20;;;19.80;95.00;;;;;;5056532;28;20440;-62
2022/07/10 11:08:40;;;;;;;8.63;2.03;;;19.70;95.40;;;;;;5056199;28;20444;-53
2022/07/10 11:11:43;;;;;;;5.40;1.70;;;19.70;95.70;;;;;;5056500;28;20490;-49
2022/07/10 11:14:11;;;;;;;4.37;1.60;;;19.90;96.00;;;;;;5046061;28;20448;-54
2022/07/10 11:16:47;;;;;;;4.80;1.77;;;20.00;95.80;;;;;;5054967;28;20484;-51
2022/07/10 11:19:14;;;;;;;5.63;1.97;;;20.00;95.40;;;;;;5055252;28;20442;-44
2022/07/10 11:21:48;;;;;;;2.70;1.50;;;20.00;95.50;;;;;;5056069;28;20471;-52
2022/07/10 11:24:33;;;;;;;5.13;1.77;;;19.80;95.70;;;;;;5055487;28;20431;-48
2022/07/10 11:27:10;;;;;;;3.80;1.70;;;19.70;96.30;;;;;;5055476;28;20444;-49
2022/07/10 11:29:39;;;;;;;3.57;1.37;;;19.60;96.80;;;;;;5055321;28;20432;-51
2022/07/10 11:32:07;;;;;;;5.93;3.10;;;19.60;96.80;;;;;;5054967;28;20495;-44
2022/07/10 11:34:37;;;;;;;6.87;2.20;;;19.50;97.20;;;;;;5055576;28;20447;-45
2022/07/10 11:37:15;;;;;;;4.63;1.50;;;19.40;96.90;;;;;;5058269;28;20541;-55
2022/07/10 11:39:42;;;;;;;7.93;1.53;;;19.70;97.10;;;;;;5060320;28;20420;-46
2022/07/10 11:42:08;;;;;;;2.97;1.30;;;20.00;96.30;;;;;;5060167;28;20475;-51
2022/07/10 11:44:35;;;;;;;4.90;1.10;;;20.20;95.50;;;;;;5059733;28;20565;-53
2022/07/10 11:47:03;;;;;;;4.33;1.47;;;20.70;94.20;;;;;;5059481;28;20459;-54
2022/07/10 11:49:30;;;;;;;4.57;2.00;;;21.00;94.00;;;;;;5058771;28;20486;-50
2022/07/10 11:52:04;;;;;;;7.80;1.70;;;21.20;93.50;;;;;;5058938;28;20488;-51
2022/07/10 11:54:32;;;;;;;7.37;1.90;;;21.00;92.70;;;;;;5059087;28;20439;-50
2022/07/10 11:57:06;;;;;;;7.07;1.90;;;20.90;93.50;;;;;;5058618;28;20518;-47
2022/07/10 11:59:33;;;;;;;5.57;1.50;;;20.80;93.50;;;;;;5058659;28;20439;-57
2022/07/10 12:02:02;;;;;;;4.27;1.60;;;20.90;94.30;;;;;;5059026;28;20535;-52
2022/07/10 12:04:31;;;;;;;4.07;1.77;;;21.10;94.70;;;;;;5058893;28;20435;-56
2022/07/10 12:06:59;;;;;;;2.70;1.87;;;21.20;93.80;;;;;;5058776;28;20516;-42
2022/07/10 12:09:26;;;;;;;6.20;2.00;;;21.10;92.60;;;;;;5058709;28;20447;-49
2022/07/10 12:12:02;;;;;;;7.73;1.63;;;21.00;92.10;;;;;;5058298;28;20487;-46
2022/07/10 12:14:29;;;;;;;4.00;1.53;;;20.70;92.50;;;;;;5058365;28;20459;-49
2022/07/10 12:16:58;;;;;;;3.43;1.37;;;20.50;93.00;;;;;;5058171;28;20480;-47
2022/07/10 12:19:27;;;;;;;2.77;1.67;;;20.40;93.60;;;;;;5058620;28;20510;-50
2022/07/10 12:21:55;;;;;;;2.73;1.33;;;20.10;94.60;;;;;;5058482;28;20467;-50
2022/07/10 12:24:23;;;;;;;6.00;1.87;;;20.10;94.90;;;;;;5058915;28;20539;-53
2022/07/10 12:26:52;;;;;;;11.50;1.93;;;20.10;94.10;;;;;;5058543;28;20447;-49
2022/07/10 12:29:24;;;;;;;3.00;1.50;;;20.20;93.90;;;;;;5058880;28;20463;-45
2022/07/10 12:31:52;;;;;;;4.80;1.70;;;20.30;93.80;;;;;;5058734;28;20448;-48
2022/07/10 12:34:20;;;;;;;4.30;1.30;;;20.50;93.60;;;;;;5058746;28;20495;-42
2022/07/10 12:36:49;;;;;;;6.00;1.93;;;20.80;93.10;;;;;;5057808;28;20472;-49
2022/07/10 12:39:18;;;;;;;7.43;1.60;;;21.00;91.30;;;;;;5057818;28;20467;-52
2022/07/10 12:41:56;;;;;;;5.20;1.90;;;20.90;90.80;;;;;;5057493;28;20516;-49
2022/07/10 12:44:41;;;;;;;3.33;1.57;;;20.80;91.70;;;;;;5058500;28;20451;-47
2022/07/10 12:47:11;;;;;;;3.20;1.60;;;20.80;92.30;;;;;;5056666;28;20456;-47
2022/07/10 12:49:52;;;;;;;4.93;1.73;;;20.70;92.90;;;;;;5057747;28;20470;-47
2022/07/10 12:52:23;;;;;;;3.03;1.70;;;20.60;92.00;;;;;;5061248;28;20487;-45
2022/07/10 12:55:06;;;;;;;5.70;1.37;;;20.60;92.40;;;;;;5050985;28;20450;-46
2022/07/10 12:57:33;;;;;;;9.40;2.30;;;20.60;91.80;;;;;;5049872;28;20515;-49
2022/07/10 13:00:07;;;;;;;2.87;1.20;;;20.60;92.30;;;;;;5058031;28;20448;-45
2022/07/10 13:02:34;;;;;;;4.50;2.23;;;20.70;92.30;;;;;;5057713;28;20445;-47
2022/07/10 13:05:01;;;;;;;4.60;2.00;;;20.80;91.70;;;;;;5058140;28;20425;-46
2022/07/10 13:07:32;;;;;;;6.17;2.00;;;20.80;91.80;;;;;;5058421;28;20468;-49
2022/07/10 13:10:01;;;;;;;4.97;2.73;;;20.80;91.80;;;;;;5058866;28;20468;-43